createdAt,value
2019-05-30T00:02:02.622Z,52.35
2019-05-30T00:04:32.123Z,52.53
2019-05-30T00:07:02.521Z,52.93
2019-05-30T00:09:32.135Z,53.13
2019-05-30T00:12:03.030Z,53.44
2019-05-30T00:14:32.737Z,53.43
2019-05-30T00:17:03.024Z,53.83
2019-05-30T00:19:33.990Z,54.06
2019-05-30T00:22:05.179Z,54.31
2019-05-30T00:24:34.949Z,54.62
2019-05-30T00:27:04.964Z,54.96
2019-05-30T00:29:34.724Z,55.22
2019-05-30T00:32:05.034Z,55.49
2019-05-30T00:34:35.044Z,55.54
2019-05-30T00:37:06.070Z,55.68
2019-05-30T00:39:35.652Z,55.34
2019-05-30T00:42:06.183Z,55.37
2019-05-30T00:44:36.135Z,55.29
2019-05-30T00:47:06.454Z,54.97
2019-05-30T00:49:35.950Z,53.87
2019-05-30T00:52:06.794Z,53.83
2019-05-30T00:54:36.658Z,53.93
2019-05-30T00:57:06.973Z,54.01
2019-05-30T00:59:36.455Z,54.16
2019-05-30T01:02:07.014Z,54.15
2019-05-30T01:04:36.894Z,53.78
2019-05-30T01:07:07.192Z,53.43
2019-05-30T01:09:36.817Z,52.73
2019-05-30T01:12:07.414Z,52.92
2019-05-30T01:14:37.019Z,53.03
2019-05-30T01:17:07.407Z,53.00
2019-05-30T01:19:37.224Z,53.16
2019-05-30T01:22:07.581Z,53.18
2019-05-30T01:24:37.343Z,53.34
2019-05-30T01:27:07.683Z,52.72
2019-05-30T01:29:37.553Z,52.94
2019-05-30T01:32:24.731Z,53.18
2019-05-30T01:34:54.147Z,53.09
2019-05-30T01:37:23.947Z,52.71
2019-05-30T01:39:53.799Z,52.73
2019-05-30T01:42:23.270Z,52.44
2019-05-30T01:44:52.797Z,52.22
2019-05-30T01:47:22.679Z,52.03
2019-05-30T01:49:52.779Z,52.17
2019-05-30T01:52:22.349Z,51.92
2019-05-30T01:54:51.823Z,51.50
2019-05-30T01:57:21.728Z,51.45
2019-05-30T01:59:51.246Z,51.41
2019-05-30T02:02:20.826Z,51.26
2019-05-30T02:04:50.566Z,51.37
2019-05-30T02:07:20.178Z,51.03
2019-05-30T02:09:49.790Z,51.17
2019-05-30T02:12:19.258Z,51.34
2019-05-30T02:14:48.823Z,51.12
2019-05-30T02:17:18.346Z,51.18
2019-05-30T02:19:48.024Z,51.34
2019-05-30T02:22:17.624Z,51.33
2019-05-30T02:24:47.111Z,51.26
2019-05-30T02:27:16.608Z,51.41
2019-05-30T02:29:46.109Z,51.33
2019-05-30T02:32:15.736Z,51.50
2019-05-30T02:34:45.447Z,51.63
2019-05-30T02:37:15.277Z,51.50
2019-05-30T02:39:44.676Z,51.33
2019-05-30T02:42:14.458Z,51.22
2019-05-30T02:44:43.941Z,50.88
2019-05-30T02:47:13.435Z,50.78
2019-05-30T02:49:42.866Z,50.64
2019-05-30T02:52:13.088Z,50.67
2019-05-30T02:54:42.606Z,50.69
2019-05-30T02:57:12.694Z,50.67
2019-05-30T02:59:42.626Z,50.65
2019-05-30T03:02:16.796Z,50.73
2019-05-30T03:04:44.049Z,50.65
2019-05-30T03:07:13.755Z,50.67
2019-05-30T03:09:43.294Z,50.79
2019-05-30T03:12:13.574Z,50.84
2019-05-30T03:14:43.344Z,50.43
2019-05-30T03:17:14.684Z,50.28
2019-05-30T03:19:44.283Z,50.49
2019-05-30T03:22:14.336Z,50.58
2019-05-30T03:24:44.007Z,50.35
2019-05-30T03:27:14.213Z,50.61
2019-05-30T03:29:43.998Z,50.33
2019-05-30T03:33:00.393Z,50.41
2019-05-30T03:34:45.609Z,50.61
2019-05-30T03:37:26.543Z,50.46
2019-05-30T03:39:47.229Z,50.90
2019-05-30T03:42:16.905Z,50.93
2019-05-30T03:44:46.315Z,51.03
2019-05-30T03:47:18.531Z,51.07
2019-05-30T03:49:50.429Z,50.95
2019-05-30T03:52:20.994Z,50.83
2019-05-30T03:54:52.265Z,50.93
2019-05-30T03:57:28.186Z,50.90
2019-05-30T04:00:06.082Z,51.09
2019-05-30T04:02:57.991Z,50.91
2019-05-30T04:05:32.742Z,50.95
2019-05-30T04:08:06.633Z,50.00
2019-05-30T04:10:39.221Z,49.74
2019-05-30T04:13:16.829Z,49.35
2019-05-30T04:15:46.915Z,49.31
2019-05-30T04:18:16.734Z,48.87
2019-05-30T04:20:46.307Z,49.26
2019-05-30T04:23:16.943Z,48.80
2019-05-30T04:25:47.038Z,48.70
2019-05-30T04:28:18.536Z,48.20
2019-05-30T04:30:47.721Z,48.15
2019-05-30T04:33:31.689Z,47.14
2019-05-30T04:35:48.696Z,47.71
2019-05-30T04:38:19.456Z,47.69
2019-05-30T04:40:49.424Z,48.04
2019-05-30T04:43:20.289Z,47.94
2019-05-30T04:45:50.159Z,48.33
2019-05-30T04:48:21.266Z,47.20
2019-05-30T04:50:51.335Z,47.20
2019-05-30T04:53:21.160Z,47.99
2019-05-30T04:55:50.753Z,48.58
2019-05-30T04:58:23.790Z,47.81
2019-05-30T05:00:52.250Z,47.80
2019-05-30T05:03:41.725Z,48.38
2019-05-30T05:05:53.365Z,48.10
2019-05-30T05:08:23.081Z,47.24
2019-05-30T05:13:22.447Z,45.59
2019-05-30T05:15:52.075Z,45.69
2019-05-30T05:18:23.249Z,45.58
2019-05-30T05:20:53.064Z,45.81
2019-05-30T05:23:23.555Z,44.37
2019-05-30T05:26:00.728Z,43.71
2019-05-30T05:28:24.720Z,44.36
2019-05-30T05:30:54.329Z,43.38
2019-05-30T05:33:24.766Z,42.79
2019-05-30T05:35:54.314Z,42.42
2019-05-30T05:38:24.413Z,42.97
2019-05-30T05:40:54.064Z,43.03
2019-05-30T05:43:24.495Z,43.08
2019-05-30T05:45:54.236Z,42.08
2019-05-30T05:48:24.744Z,42.64
2019-05-30T05:50:54.358Z,42.21
2019-05-30T05:53:24.970Z,41.94
2019-05-30T05:55:54.845Z,41.45
2019-05-30T05:58:26.448Z,41.63
2019-05-30T06:00:55.789Z,42.08
2019-05-30T06:03:25.458Z,41.46
2019-05-30T06:05:55.165Z,41.36
2019-05-30T06:08:25.848Z,41.71
2019-05-30T06:10:55.686Z,41.37
2019-05-30T06:13:25.428Z,41.65
2019-05-30T06:15:55.034Z,41.19
2019-05-30T06:18:24.771Z,41.49
2019-05-30T06:20:54.512Z,40.98
2019-05-30T06:23:25.637Z,40.83
2019-05-30T06:25:55.196Z,41.24
2019-05-30T06:28:24.828Z,40.15
2019-05-30T06:30:58.935Z,40.40
2019-05-30T06:33:27.268Z,40.51
2019-05-30T06:35:56.905Z,40.02
2019-05-30T06:38:27.403Z,40.57
2019-05-30T06:40:57.241Z,39.14
2019-05-30T06:43:28.145Z,38.44
2019-05-30T06:45:58.100Z,37.49
2019-05-30T06:48:28.791Z,37.76
2019-05-30T06:50:58.264Z,37.51
2019-05-30T06:53:29.242Z,37.61
2019-05-30T06:55:59.096Z,37.54
2019-05-30T06:58:47.495Z,37.35
2019-05-30T07:01:00.224Z,37.51
2019-05-30T07:03:30.623Z,37.76
2019-05-30T07:06:00.934Z,38.09
2019-05-30T07:08:30.899Z,37.35
2019-05-30T07:11:00.382Z,37.81
2019-05-30T07:13:31.639Z,37.66
2019-05-30T07:16:01.397Z,37.55
2019-05-30T07:18:34.689Z,37.62
2019-05-30T07:21:02.660Z,37.08
2019-05-30T07:23:32.217Z,37.50
2019-05-30T07:26:03.516Z,37.38
2019-05-30T07:28:34.101Z,37.21
2019-05-30T07:31:03.758Z,37.00
2019-05-30T07:33:34.453Z,36.53
2019-05-30T07:36:04.137Z,35.98
2019-05-30T07:38:34.717Z,37.26
2019-05-30T07:41:04.605Z,36.70
2019-05-30T07:43:35.226Z,36.72
2019-05-30T07:46:05.026Z,36.62
2019-05-30T07:48:35.104Z,35.93
2019-05-30T07:51:04.588Z,36.13
2019-05-30T07:53:34.942Z,35.93
2019-05-30T07:56:04.813Z,35.62
2019-05-30T07:58:35.337Z,35.95
2019-05-30T08:01:04.996Z,36.21
2019-05-30T08:03:34.806Z,35.78
2019-05-30T08:06:04.477Z,35.29
2019-05-30T08:08:33.998Z,34.95
2019-05-30T08:11:09.267Z,34.82
2019-05-30T08:13:35.313Z,34.93
2019-05-30T08:16:04.723Z,34.65
2019-05-30T08:18:34.334Z,34.61
2019-05-30T08:21:04.136Z,34.47
2019-05-30T08:23:34.237Z,34.44
2019-05-30T08:26:03.948Z,34.77
2019-05-30T08:28:34.332Z,34.83
2019-05-30T08:31:03.856Z,34.57
2019-05-30T08:33:33.690Z,33.95
2019-05-30T08:36:05.520Z,34.33
2019-05-30T08:38:35.380Z,32.87
2019-05-30T08:41:05.029Z,33.68
2019-05-30T08:43:35.579Z,34.49
2019-05-30T08:46:05.579Z,33.71
2019-05-30T08:48:36.212Z,34.17
2019-05-30T08:51:05.720Z,33.74
2019-05-30T08:53:36.434Z,34.27
2019-05-30T08:56:06.283Z,34.14
2019-05-30T08:58:36.779Z,33.58
2019-05-30T09:01:06.303Z,33.38
2019-05-30T09:03:36.161Z,32.58
2019-05-30T09:06:05.882Z,32.83
2019-05-30T09:08:36.022Z,32.20
2019-05-30T09:11:05.684Z,33.30
2019-05-30T09:13:35.998Z,33.36
2019-05-30T09:16:06.795Z,32.89
2019-05-30T09:18:37.983Z,32.00
2019-05-30T09:21:07.802Z,32.16
2019-05-30T09:23:39.174Z,31.46
2019-05-30T09:26:08.740Z,31.97
2019-05-30T09:28:39.484Z,32.49
2019-05-30T09:31:09.738Z,32.48
2019-05-30T09:33:40.836Z,32.06
2019-05-30T09:36:13.572Z,30.54
2019-05-30T09:38:43.475Z,29.22
2019-05-30T09:41:13.451Z,28.93
2019-05-30T09:43:44.341Z,27.19
2019-05-30T09:46:14.302Z,26.52
2019-05-30T09:48:44.802Z,27.52
2019-05-30T09:51:14.646Z,25.54
2019-05-30T09:53:45.871Z,23.80
2019-05-30T09:56:15.818Z,23.01
2019-05-30T09:58:46.029Z,20.86
2019-05-30T10:01:15.830Z,20.43
2019-05-30T10:03:46.503Z,19.46
2019-05-30T10:06:28.372Z,19.18
2019-05-30T10:08:48.349Z,18.22
2019-05-30T10:11:18.953Z,18.28
2019-05-30T10:13:50.776Z,18.01
2019-05-30T10:16:20.135Z,17.00
2019-05-30T10:18:50.776Z,17.15
2019-05-30T10:21:20.252Z,16.42
2019-05-30T10:23:51.997Z,16.07
2019-05-30T10:26:21.338Z,16.07
2019-05-30T10:28:51.404Z,15.27
2019-05-30T10:31:21.271Z,14.98
2019-05-30T10:33:51.106Z,15.63
2019-05-30T10:36:20.621Z,16.91
2019-05-30T10:38:50.598Z,17.55
2019-05-30T10:41:21.665Z,17.09
2019-05-30T10:43:51.250Z,16.75
2019-05-30T10:46:20.823Z,17.43
2019-05-30T10:48:51.161Z,16.52
2019-05-30T10:51:22.293Z,15.53
2019-05-30T10:53:52.696Z,16.39
2019-05-30T10:56:23.345Z,16.59
2019-05-30T10:58:52.941Z,17.42
2019-05-30T11:01:22.699Z,17.77
2019-05-30T11:03:52.633Z,19.60
2019-05-30T11:06:34.762Z,17.88
2019-05-30T11:09:06.352Z,17.29
2019-05-30T11:11:35.992Z,16.08
2019-05-30T11:14:05.734Z,15.39
2019-05-30T11:16:35.327Z,14.77
2019-05-30T11:19:07.494Z,14.75
2019-05-30T11:21:36.282Z,14.18
2019-05-30T11:24:06.160Z,14.24
2019-05-30T11:26:36.088Z,13.75
2019-05-30T11:29:05.931Z,13.47
2019-05-30T11:31:35.322Z,13.35
2019-05-30T11:34:05.026Z,13.07
2019-05-30T11:36:34.723Z,13.15
2019-05-30T11:39:04.487Z,13.91
2019-05-30T11:41:34.073Z,13.54
2019-05-30T11:44:04.269Z,13.45
2019-05-30T11:46:34.233Z,13.30
2019-05-30T11:49:03.876Z,13.70
2019-05-30T11:51:33.493Z,13.80
2019-05-30T11:54:03.193Z,13.96
2019-05-30T11:56:32.704Z,14.54
2019-05-30T11:59:02.355Z,13.75
2019-05-30T12:01:32.087Z,13.62
2019-05-30T12:04:01.540Z,14.11
2019-05-30T12:06:31.260Z,14.47
2019-05-30T12:09:01.164Z,16.02
2019-05-30T12:11:31.004Z,15.70
2019-05-30T12:14:01.538Z,15.49
2019-05-30T12:16:31.117Z,14.82
2019-05-30T12:19:01.924Z,14.87
2019-05-30T12:21:31.476Z,14.38
2019-05-30T12:24:02.605Z,14.40
2019-05-30T12:26:33.949Z,14.12
2019-05-30T12:29:03.932Z,13.90
2019-05-30T12:31:33.512Z,13.82
2019-05-30T12:34:03.393Z,13.58
2019-05-30T12:36:32.791Z,14.71
2019-05-30T12:39:02.756Z,15.74
2019-05-30T12:41:32.518Z,15.28
2019-05-30T12:44:03.351Z,15.28
2019-05-30T12:46:33.803Z,14.80
2019-05-30T12:49:03.740Z,14.83
2019-05-30T12:51:33.137Z,15.10
2019-05-30T12:54:02.870Z,14.37
2019-05-30T12:56:32.548Z,14.64
2019-05-30T12:59:03.079Z,14.78
2019-05-30T13:01:32.765Z,15.03
2019-05-30T13:04:03.310Z,15.41
2019-05-30T13:06:33.208Z,15.65
2019-05-30T13:09:03.339Z,16.26
2019-05-30T13:11:33.262Z,16.47
2019-05-30T13:14:02.864Z,16.59
2019-05-30T13:16:32.643Z,17.31
2019-05-30T13:19:02.443Z,16.01
2019-05-30T13:21:31.930Z,15.48
2019-05-30T13:24:02.018Z,16.25
2019-05-30T13:26:31.895Z,16.53
2019-05-30T13:29:02.328Z,16.72
2019-05-30T13:31:32.019Z,16.08
2019-05-30T13:34:02.950Z,16.09
2019-05-30T13:36:33.033Z,15.88
2019-05-30T13:39:03.235Z,16.19
2019-05-30T13:41:32.699Z,16.48
2019-05-30T13:44:04.568Z,16.15
2019-05-30T13:46:34.128Z,16.86
2019-05-30T13:49:04.765Z,17.32
2019-05-30T13:51:34.176Z,18.32
2019-05-30T13:54:03.612Z,18.76
2019-05-30T13:56:33.250Z,20.03
2019-05-30T13:59:03.879Z,21.16
2019-05-30T14:01:33.499Z,21.66
2019-05-30T14:04:04.624Z,22.30
2019-05-30T14:06:34.177Z,22.27
2019-05-30T14:09:04.663Z,22.59
2019-05-30T14:11:34.433Z,23.65
2019-05-30T14:14:04.739Z,24.13
2019-05-30T14:16:34.259Z,25.08
2019-05-30T14:19:05.337Z,25.34
2019-05-30T14:21:35.038Z,25.64
2019-05-30T14:24:05.324Z,25.87
2019-05-30T14:26:35.032Z,25.79
2019-05-30T14:29:05.699Z,26.48
2019-05-30T14:31:35.267Z,26.58
2019-05-30T14:34:06.022Z,26.79
2019-05-30T14:36:35.480Z,27.05
2019-05-30T14:39:06.877Z,27.82
2019-05-30T14:41:36.545Z,28.59
2019-05-30T14:44:07.181Z,28.90
2019-05-30T14:46:37.050Z,28.50
2019-05-30T14:49:06.982Z,28.31
2019-05-30T14:51:36.612Z,29.12
2019-05-30T14:54:06.881Z,29.82
2019-05-30T14:56:36.580Z,29.79
2019-05-30T14:59:06.884Z,30.02
2019-05-30T15:01:36.571Z,30.40
2019-05-30T15:04:07.113Z,30.79
2019-05-30T15:06:36.956Z,30.88
2019-05-30T15:09:18.946Z,31.25
2019-05-30T15:11:38.997Z,31.21
2019-05-30T15:14:08.717Z,30.90
2019-05-30T15:16:38.586Z,31.04
2019-05-30T15:19:08.225Z,31.00
2019-05-30T15:21:37.663Z,31.48
2019-05-30T15:24:07.710Z,31.53
2019-05-30T15:26:37.341Z,31.68
2019-05-30T15:29:08.031Z,32.46
2019-05-30T15:31:37.905Z,32.30
2019-05-30T15:34:08.502Z,32.41
2019-05-30T15:36:38.208Z,32.81
2019-05-30T15:39:09.036Z,32.51
2019-05-30T15:41:38.533Z,32.42
2019-05-30T15:44:09.391Z,32.68
2019-05-30T15:46:39.536Z,32.98
2019-05-30T15:49:10.201Z,33.46
2019-05-30T15:51:39.976Z,33.45
2019-05-30T15:54:10.772Z,33.46
2019-05-30T15:56:40.307Z,33.37
2019-05-30T15:59:09.841Z,33.20
2019-05-30T16:01:39.585Z,34.21
2019-05-30T16:04:10.016Z,34.21
2019-05-30T16:06:39.690Z,34.15
2019-05-30T16:09:10.641Z,34.56
2019-05-30T16:11:40.289Z,34.80
2019-05-30T16:14:11.074Z,35.99
2019-05-30T16:16:41.145Z,36.74
2019-05-30T16:19:17.341Z,36.66
2019-05-30T16:21:42.849Z,36.66
2019-05-30T16:24:12.435Z,36.94
2019-05-30T16:26:44.705Z,36.78
2019-05-30T16:29:15.640Z,36.94
2019-05-30T16:31:45.290Z,37.12
2019-05-30T16:34:16.101Z,37.42
2019-05-30T16:36:45.626Z,37.42
2019-05-30T16:39:16.015Z,37.65
2019-05-30T16:41:45.621Z,37.43
2019-05-30T16:44:16.178Z,38.01
2019-05-30T16:46:45.611Z,37.92
2019-05-30T16:49:16.378Z,38.23
2019-05-30T16:51:46.123Z,38.45
2019-05-30T16:54:15.555Z,38.84
2019-05-30T16:56:45.093Z,39.22
2019-05-30T16:59:14.909Z,39.88
2019-05-30T17:01:44.650Z,39.44
2019-05-30T17:04:14.836Z,40.29
2019-05-30T17:06:44.330Z,42.53
2019-05-30T17:09:15.090Z,44.58
2019-05-30T17:11:44.646Z,45.04
2019-05-30T17:14:15.535Z,49.86
2019-05-30T17:16:45.437Z,59.46
2019-05-30T17:19:16.393Z,70.12
2019-05-30T17:21:46.056Z,78.65
2019-05-30T17:45:56.377Z,95.63
2019-05-30T17:48:25.883Z,95.73
2019-05-30T17:50:55.925Z,96.57
2019-05-30T17:53:25.999Z,97.31
2019-05-30T17:55:59.258Z,96.95
2019-05-30T17:58:28.048Z,96.62
2019-05-30T18:00:57.767Z,96.79
2019-05-30T18:03:28.445Z,97.31
2019-05-30T18:05:58.164Z,97.91
2019-05-30T18:08:28.951Z,98.36
2019-05-30T18:10:58.638Z,98.65
2019-05-30T18:13:29.217Z,98.71
2019-05-30T18:15:59.000Z,98.80
2019-05-30T18:18:29.326Z,98.66
2019-05-30T18:20:59.028Z,98.30
2019-05-30T18:23:29.706Z,97.68
2019-05-30T18:25:59.553Z,97.22
2019-05-30T18:28:29.893Z,97.49
2019-05-30T18:30:59.450Z,98.31
2019-05-30T18:33:30.208Z,98.06
2019-05-30T18:36:00.284Z,98.38
2019-05-30T18:38:30.494Z,98.56
2019-05-30T18:41:10.833Z,98.87
2019-05-30T18:43:31.638Z,99.16
2019-05-30T18:46:01.421Z,98.92
2019-05-30T18:48:31.477Z,99.07
2019-05-30T18:51:01.660Z,99.17
2019-05-30T18:53:32.542Z,99.24
2019-05-30T18:56:02.040Z,99.27
2019-05-30T18:58:31.658Z,99.43
2019-05-30T19:01:01.301Z,98.27
2019-05-30T19:03:31.651Z,98.12
2019-05-30T19:06:02.452Z,98.52
2019-05-30T19:08:32.321Z,99.01
2019-05-30T19:11:02.566Z,98.70
2019-05-30T19:13:33.065Z,98.28
2019-05-30T19:16:02.922Z,97.93
2019-05-30T19:18:33.638Z,98.24
2019-05-30T19:21:03.629Z,98.42
2019-05-30T19:23:34.305Z,98.90
2019-05-30T19:26:05.345Z,99.33
2019-05-30T19:28:35.229Z,99.09
2019-05-30T19:31:04.717Z,97.97
2019-05-30T19:33:34.961Z,97.55
2019-05-30T19:36:04.373Z,97.06
2019-05-30T19:38:35.395Z,97.26
2019-05-30T19:41:05.529Z,97.93
2019-05-30T19:43:35.943Z,98.35
2019-05-30T19:46:05.934Z,98.18
2019-05-30T19:48:36.468Z,98.22
2019-05-30T19:51:06.426Z,98.12
2019-05-30T19:53:37.019Z,97.94
2019-05-30T19:56:06.856Z,97.77
2019-05-30T19:58:37.666Z,97.79
2019-05-30T20:01:07.307Z,97.81
2019-05-30T20:03:43.615Z,97.87
2019-05-30T20:06:08.567Z,97.38
2019-05-30T20:08:52.819Z,96.63
2019-05-30T20:11:09.407Z,96.20
2019-05-30T20:13:39.250Z,96.10
2019-05-30T20:16:09.044Z,95.09
2019-05-30T20:18:39.668Z,94.96
2019-05-30T20:21:09.234Z,94.85
2019-05-30T20:23:50.375Z,94.45
2019-05-30T20:26:10.465Z,93.98
2019-05-30T20:28:40.863Z,94.36
2019-05-30T20:31:10.434Z,94.65
2019-05-30T20:33:40.614Z,95.45
2019-05-30T20:36:10.494Z,95.17
2019-05-30T20:38:40.667Z,94.42
2019-05-30T20:41:10.176Z,94.46
2019-05-30T20:43:40.991Z,93.83
2019-05-30T20:46:22.843Z,93.73
2019-05-30T20:48:44.698Z,94.30
2019-05-30T20:51:21.297Z,94.58
2019-05-30T20:53:44.914Z,93.73
2019-05-30T20:56:14.623Z,94.07
2019-05-30T20:58:44.114Z,94.81
2019-05-30T21:01:13.844Z,93.26
2019-05-30T21:03:43.728Z,92.21
2019-05-30T21:06:14.975Z,92.94
2019-05-30T21:08:47.510Z,93.93
2019-05-30T21:11:18.475Z,94.18
2019-05-30T21:13:49.717Z,93.57
2019-05-30T21:16:21.575Z,93.32
2019-05-30T21:18:52.976Z,93.11
2019-05-30T21:21:22.448Z,93.69
2019-05-30T21:23:51.867Z,94.34
2019-05-30T21:26:21.268Z,94.70
2019-05-30T21:28:51.009Z,94.84
2019-05-30T21:31:20.520Z,95.40
2019-05-30T21:33:49.965Z,95.61
2019-05-30T21:36:19.852Z,94.36
2019-05-30T21:38:49.323Z,93.53
2019-05-30T21:41:19.088Z,93.27
2019-05-30T21:43:49.041Z,92.98
2019-05-30T21:46:19.103Z,93.24
2019-05-30T21:48:49.075Z,92.96
2019-05-30T21:51:18.562Z,92.79
2019-05-30T21:53:48.049Z,93.33
2019-05-30T21:56:17.678Z,94.20
2019-05-30T21:58:48.284Z,94.16
2019-05-30T22:01:33.023Z,93.84
2019-05-30T22:04:03.359Z,94.50
2019-05-30T22:06:33.090Z,93.36
2019-05-30T22:09:03.708Z,93.13
2019-05-30T22:11:33.170Z,93.33
2019-05-30T22:14:02.653Z,93.68
2019-05-30T22:16:32.443Z,94.02
2019-05-30T22:19:01.901Z,94.01
2019-05-30T22:21:31.607Z,93.34
2019-05-30T22:24:01.105Z,93.65
2019-05-30T22:26:30.864Z,93.60
2019-05-30T22:29:00.520Z,94.08
2019-05-30T22:31:30.361Z,94.22
2019-05-30T22:33:59.972Z,93.76
2019-05-30T22:36:29.462Z,93.18
2019-05-30T22:38:59.206Z,92.82
2019-05-30T22:41:28.901Z,92.53
2019-05-30T22:43:58.670Z,90.55
2019-05-30T22:46:28.220Z,90.22
2019-05-30T22:48:57.859Z,87.87
2019-05-30T22:51:27.741Z,87.53
2019-05-30T22:53:57.488Z,86.24
2019-05-30T22:56:27.032Z,86.09
2019-05-30T22:58:56.690Z,84.44
2019-05-30T23:01:26.572Z,82.45
2019-05-30T23:03:55.978Z,81.22
2019-05-30T23:06:25.791Z,80.58
2019-05-30T23:08:55.296Z,78.21
2019-05-30T23:11:24.680Z,77.68
2019-05-30T23:13:54.415Z,76.88
2019-05-30T23:16:24.106Z,76.19
2019-05-30T23:18:54.730Z,75.62
2019-05-30T23:21:24.410Z,76.87
2019-05-30T23:23:55.277Z,75.28
2019-05-30T23:26:25.099Z,74.67
2019-05-30T23:28:55.759Z,74.05
2019-05-30T23:31:25.315Z,72.51
2019-05-30T23:33:54.866Z,73.07
2019-05-30T23:36:24.760Z,73.07
2019-05-30T23:38:54.944Z,72.86
2019-05-30T23:41:24.574Z,72.15
2019-05-30T23:44:06.473Z,72.64
2019-05-30T23:46:25.274Z,71.51
2019-05-30T23:48:55.822Z,75.00
2019-05-30T23:51:25.561Z,73.86
2019-05-30T23:53:56.231Z,72.19
2019-05-30T23:56:25.810Z,71.02
2019-05-30T23:58:56.743Z,72.99
